Terminal Aerodrome Forecast
Issued by NWS

Home | Current Version | Previous Version | Text Only | Print | Product List | Glossary On
Versions: 1 2 3 4 5 6 7 8 9 10 11 12 13 14 15 16 17 18
690
FTUS45 KFGZ 181720
TAFGCN
TAF
KGCN 181720Z 1818/1918 23008G15KT P6SM FEW040 FEW250
     FM190100 22007KT P6SM FEW110 SCT200
     FM190900 22008KT P6SM SCT010 OVC030
     FM191200 22011KT 3SM -SN BKN007 OVC012=

USA.gov is the U.S. government's official web portal to all federal, state and local government web resources and services.